Harstine, Washington
Current Conditions -  °F | °C
As of 12:53 AM on Saturday 22 Nov 2014 (Local Time) from KSHN Reporting Station
Light Rain Light Rain  
Wind Chill: 37°   Ceiling: 3100
Heat Index: 44°   Visibility: 10mi
Dew Point: 41°   Wind: 15mph
Humidity: 89%   Direction: 240°WSW
Pressure: 29.56"   Gusts: NA
Location:  47.1839°N, 123.15°W
Report Text: KSHN 220853Z AUTO 24013KT 10SM -RA BKN031 07/05 A2956 RMK AO2 RAB49 SLP011 P0000 60000 T00670050 51036
Loading
Personal Weather Stations






























Interactive Weather Map New forecast layout! Learn more

10-Day Weather Forecast

Advertisements
Track Severe Weather on mobile